createdAt,value
2023-02-21T08:33:44.864Z,50.834892
2023-02-21T08:34:44.868Z,50.834850
2023-02-21T08:35:44.870Z,50.834862
2023-02-21T08:36:44.917Z,50.834846
2023-02-21T08:37:44.820Z,50.834835
2023-02-21T08:38:44.855Z,50.834873
2023-02-21T08:39:44.845Z,50.834854
2023-02-21T08:40:44.815Z,50.834877
2023-02-21T08:41:44.795Z,50.834892
2023-02-21T08:42:44.823Z,50.834896
2023-02-21T08:43:44.845Z,50.834888
2023-02-21T08:44:44.786Z,50.834892
2023-02-21T08:45:44.760Z,50.834892
2023-02-21T08:46:44.863Z,50.834869
2023-02-21T08:47:44.753Z,50.834904
2023-02-21T08:48:44.730Z,50.834900
2023-02-21T08:49:44.758Z,50.834908
2023-02-21T08:50:44.774Z,50.834881
2023-02-21T08:51:44.724Z,50.834881
2023-02-21T08:52:44.743Z,50.834866
2023-02-21T08:53:44.745Z,50.834892
2023-02-21T08:54:44.703Z,50.834854
2023-02-21T08:55:44.703Z,50.834843
2023-02-21T08:56:44.687Z,50.834900
2023-02-21T08:57:44.703Z,50.834866
2023-02-21T08:58:44.764Z,50.834888
2023-02-21T08:59:44.701Z,50.834885
2023-02-21T09:00:44.707Z,50.834877
2023-02-21T09:01:44.734Z,50.834862
2023-02-21T09:02:44.635Z,50.834873
2023-02-21T09:03:44.643Z,50.834873
2023-02-21T09:04:44.668Z,50.834881
2023-02-21T09:05:44.630Z,50.834869
2023-02-21T09:06:44.615Z,50.834858
2023-02-21T09:07:44.615Z,50.834839
2023-02-21T09:08:44.620Z,50.834839
2023-02-21T09:09:44.616Z,50.834824
2023-02-21T09:10:44.625Z,50.834839
2023-02-21T09:11:44.656Z,50.834866
2023-02-21T09:12:45.493Z,50.834877
2023-02-21T09:13:44.574Z,50.834873
2023-02-21T09:14:44.551Z,50.834843
2023-02-21T09:15:44.548Z,50.834831
2023-02-21T09:16:46.746Z,50.834846
2023-02-21T09:17:44.535Z,50.834854
2023-02-21T09:18:44.562Z,50.834850
2023-02-21T09:19:44.529Z,50.834846
2023-02-21T09:20:44.527Z,50.834827
2023-02-21T09:21:44.620Z,50.834831
2023-02-21T09:22:44.536Z,50.834866
2023-02-21T09:23:44.508Z,50.834858
2023-02-21T09:24:44.467Z,50.834843
2023-02-21T09:25:44.500Z,50.834854
2023-02-21T09:26:44.487Z,50.834846
2023-02-21T09:27:44.501Z,50.834854
2023-02-21T09:28:44.502Z,50.834850
2023-02-21T09:29:46.666Z,50.834850
2023-02-21T09:30:45.518Z,50.834854
2023-02-21T09:31:44.468Z,50.834858
2023-02-21T09:32:44.474Z,50.834854
2023-02-21T09:33:44.478Z,50.834854
2023-02-21T09:34:44.397Z,50.834866
2023-02-21T09:35:44.390Z,50.834854
2023-02-21T09:36:44.431Z,50.834854
2023-02-21T09:37:44.373Z,50.834862
2023-02-21T09:38:44.346Z,50.834850
2023-02-21T09:39:44.410Z,50.834854
2023-02-21T09:40:44.374Z,50.834858
2023-02-21T09:41:44.413Z,50.834846
2023-02-21T09:42:44.371Z,50.834846
2023-02-21T09:43:44.427Z,50.834866
2023-02-21T09:44:44.365Z,50.834858
2023-02-21T09:45:44.388Z,50.834869
2023-02-21T09:46:44.322Z,50.834854
2023-02-21T09:47:44.306Z,50.834839
2023-02-21T09:48:44.343Z,50.834835
2023-02-21T09:49:44.295Z,50.834846
2023-02-21T09:50:44.287Z,50.834866
2023-02-21T09:51:44.270Z,50.834835
2023-02-21T09:52:44.283Z,50.834835
2023-02-21T09:53:44.287Z,50.834835
2023-02-21T09:54:44.281Z,50.834850
2023-02-21T09:55:44.255Z,50.834854
2023-02-21T09:56:44.253Z,50.834854
2023-02-21T09:57:44.217Z,50.834858
2023-02-21T09:58:44.259Z,50.834812
2023-02-21T09:59:44.249Z,50.834839
2023-02-21T10:00:46.754Z,50.834885
2023-02-21T10:01:45.193Z,50.834862
2023-02-21T10:02:44.187Z,50.834820
2023-02-21T10:03:44.185Z,50.834816
2023-02-21T10:04:44.614Z,50.834801
2023-02-21T10:05:44.156Z,50.834805
2023-02-21T10:06:44.156Z,50.834835
2023-02-21T10:07:44.124Z,50.834820
2023-02-21T10:08:44.126Z,50.834824
2023-02-21T10:09:44.286Z,50.834827
2023-02-21T10:10:44.131Z,50.834812
2023-02-21T10:11:44.136Z,50.834820
2023-02-21T10:12:44.099Z,50.834824
2023-02-21T10:13:44.103Z,50.834816
2023-02-21T10:14:44.105Z,50.834839
2023-02-21T10:15:44.067Z,50.834862
2023-02-21T10:16:44.127Z,50.834869
2023-02-21T10:17:44.053Z,50.834854
2023-02-21T10:18:44.041Z,50.834858
2023-02-21T10:19:44.071Z,50.834831
2023-02-21T10:20:44.041Z,50.834824
2023-02-21T10:21:44.095Z,50.834835
2023-02-21T10:22:44.087Z,50.834827
2023-02-21T10:23:44.015Z,50.834854
2023-02-21T10:24:44.002Z,50.834808
2023-02-21T10:25:44.029Z,50.834824
2023-02-21T10:26:44.039Z,50.834850
2023-02-21T10:27:44.032Z,50.834835
2023-02-21T10:28:43.989Z,50.834843
2023-02-21T10:29:43.982Z,50.834854
2023-02-21T10:30:44.050Z,50.834843
2023-02-21T10:31:44.039Z,50.834820
2023-02-21T10:32:43.976Z,50.834812
2023-02-21T10:33:43.994Z,50.834873
2023-02-21T10:34:46.249Z,50.834843
2023-02-21T10:35:44.918Z,50.834846
2023-02-21T10:36:43.904Z,50.834843
2023-02-21T10:37:43.925Z,50.834835
2023-02-21T10:38:43.920Z,50.834827
2023-02-21T10:39:43.874Z,50.834831
2023-02-21T10:40:43.878Z,50.834824
2023-02-21T10:41:43.943Z,50.834854
2023-02-21T10:42:43.862Z,50.834850
2023-02-21T10:43:43.876Z,50.834827
2023-02-21T10:44:43.875Z,50.834812
2023-02-21T10:45:46.443Z,50.834843
2023-02-21T10:46:44.831Z,50.834835
2023-02-21T10:47:43.837Z,50.834843
2023-02-21T10:48:43.853Z,50.834835
2023-02-21T10:49:43.822Z,50.834873
2023-02-21T10:50:43.837Z,50.834873
2023-02-21T10:51:43.810Z,50.834858
2023-02-21T10:52:43.825Z,50.834858
2023-02-21T10:53:43.780Z,50.834839
2023-02-21T10:54:43.767Z,50.834812
2023-02-21T10:55:43.789Z,50.834831
2023-02-21T10:56:43.752Z,50.834797
2023-02-21T10:57:43.796Z,50.834839
2023-02-21T10:58:43.765Z,50.834839
2023-02-21T10:59:43.722Z,50.834839
2023-02-21T11:00:43.745Z,50.834812
2023-02-21T11:01:43.779Z,50.834831
2023-02-21T11:02:43.758Z,50.834808
2023-02-21T11:03:43.699Z,50.834808
2023-02-21T11:04:43.743Z,50.834801
2023-02-21T11:05:43.680Z,50.834816
2023-02-21T11:06:43.672Z,50.834827
2023-02-21T11:07:43.695Z,50.834820
2023-02-21T11:08:43.740Z,50.834843
2023-02-21T11:09:43.642Z,50.834824
2023-02-21T11:10:43.652Z,50.834805
2023-02-21T11:11:43.712Z,50.834835
2023-02-21T11:12:43.634Z,50.834827
2023-02-21T11:13:43.629Z,50.834808
2023-02-21T11:14:43.653Z,50.834808
2023-02-21T11:15:43.640Z,50.834801
2023-02-21T11:16:43.622Z,50.834820
2023-02-21T11:17:43.574Z,50.834820
2023-02-21T11:18:43.613Z,50.834827
2023-02-21T11:19:43.607Z,50.834850
2023-02-21T11:20:43.637Z,50.834850
2023-02-21T11:21:43.588Z,50.834846
2023-02-21T11:22:43.585Z,50.834835
2023-02-21T11:23:43.638Z,50.834827
2023-02-21T11:24:43.643Z,50.834824
2023-02-21T11:25:43.693Z,50.834839
2023-02-21T11:26:43.554Z,50.834839
2023-02-21T11:27:45.490Z,50.834816
2023-02-21T11:28:43.653Z,50.834827
2023-02-21T11:29:43.529Z,50.834824
2023-02-21T11:30:43.662Z,50.834839
2023-02-21T11:31:43.658Z,50.834831
2023-02-21T11:32:43.539Z,50.834854
2023-02-21T11:33:43.478Z,50.834846
2023-02-21T11:34:44.822Z,50.834827
2023-02-21T11:35:43.498Z,50.834843
2023-02-21T11:36:43.548Z,50.834831
2023-02-21T11:37:43.541Z,50.834843
2023-02-21T11:38:43.473Z,50.834827
2023-02-21T11:39:43.429Z,50.834820
2023-02-21T11:40:43.460Z,50.834816
2023-02-21T11:41:43.427Z,50.834831
2023-02-21T11:42:43.463Z,50.834839
2023-02-21T11:43:43.419Z,50.834846
2023-02-21T11:44:43.376Z,50.834820
2023-02-21T11:45:44.452Z,50.834827
2023-02-21T11:46:43.369Z,50.834801
2023-02-21T11:47:43.379Z,50.834812
2023-02-21T11:48:43.421Z,50.834805
2023-02-21T11:49:43.505Z,50.834812
2023-02-21T11:50:43.337Z,50.834816
2023-02-21T11:51:43.338Z,50.834808
2023-02-21T11:52:43.364Z,50.834812
2023-02-21T11:53:43.448Z,50.834820
2023-02-21T11:54:43.325Z,50.834824
2023-02-21T11:55:43.297Z,50.834808
2023-02-21T11:56:43.321Z,50.834820
2023-02-21T11:57:43.301Z,50.834824
2023-02-21T11:58:43.262Z,50.834816
2023-02-21T11:59:44.307Z,50.834808
2023-02-21T12:00:43.282Z,50.834824
2023-02-21T12:01:43.265Z,50.834805
2023-02-21T12:02:43.409Z,50.834808
2023-02-21T12:03:43.229Z,50.834812
2023-02-21T12:04:43.251Z,50.834808
2023-02-21T12:05:43.264Z,50.834835
2023-02-21T12:06:43.222Z,50.834839
2023-02-21T12:07:43.212Z,50.834820
2023-02-21T12:08:43.197Z,50.834850
2023-02-21T12:09:43.208Z,50.834827
2023-02-21T12:10:43.224Z,50.834827
2023-02-21T12:11:43.174Z,50.834812
2023-02-21T12:12:43.196Z,50.834797
2023-02-21T12:13:43.214Z,50.834805
2023-02-21T12:14:43.210Z,50.834797
2023-02-21T12:15:43.292Z,50.834793
2023-02-21T12:16:43.179Z,50.834797
2023-02-21T12:17:43.123Z,50.834843
2023-02-21T12:18:43.114Z,50.834820
2023-02-21T12:19:43.140Z,50.834827
2023-02-21T12:20:44.037Z,50.834820
2023-02-21T12:21:43.090Z,50.834824
2023-02-21T12:22:43.118Z,50.834846
2023-02-21T12:23:43.113Z,50.834820
2023-02-21T12:24:43.075Z,50.834816
2023-02-21T12:25:43.119Z,50.834808
2023-02-21T12:26:43.073Z,50.834816
2023-02-21T12:27:43.050Z,50.834862
2023-02-21T12:28:43.067Z,50.834846
2023-02-21T12:29:43.089Z,50.834812
2023-02-21T12:30:43.193Z,50.834801
2023-02-21T12:31:43.690Z,50.834793
2023-02-21T12:32:43.042Z,50.834785
2023-02-21T12:33:43.092Z,50.834774
2023-02-21T12:34:43.016Z,50.834797
2023-02-21T12:35:43.036Z,50.834805
2023-02-21T12:36:43.015Z,50.834782
2023-02-21T12:37:43.016Z,50.834770
2023-02-21T12:38:43.008Z,50.834774
2023-02-21T12:39:42.977Z,50.834759
2023-02-21T12:40:43.020Z,50.834751
2023-02-21T12:41:44.001Z,50.834766
2023-02-21T12:42:43.025Z,50.834801
2023-02-21T12:43:43.156Z,50.834797
2023-02-21T12:44:42.958Z,50.834793
2023-02-21T12:45:43.007Z,50.834820
2023-02-21T12:46:42.997Z,50.834785
2023-02-21T12:47:42.970Z,50.834789
2023-02-21T12:48:42.939Z,50.834785
2023-02-21T12:49:42.900Z,50.834789
2023-02-21T12:50:42.923Z,50.834774
2023-02-21T12:51:42.899Z,50.834763
2023-02-21T12:52:42.905Z,50.834763
2023-02-21T12:53:42.895Z,50.834789
2023-02-21T12:54:42.869Z,50.834797
2023-02-21T12:55:42.869Z,50.834785
2023-02-21T12:56:42.907Z,50.834801
2023-02-21T12:57:42.870Z,50.834766
2023-02-21T12:58:42.858Z,50.834763
2023-02-21T12:59:42.861Z,50.834782
2023-02-21T13:00:42.813Z,50.834774
2023-02-21T13:01:42.892Z,50.834770
2023-02-21T13:02:42.888Z,50.834778
2023-02-21T13:03:42.831Z,50.834782
2023-02-21T13:04:42.797Z,50.834785
2023-02-21T13:06:14.692Z,50.834782
2023-02-21T13:06:42.789Z,50.834774
2023-02-21T13:07:43.774Z,50.834793
2023-02-21T13:08:43.554Z,50.834778
2023-02-21T13:09:43.452Z,50.834793
2023-02-21T13:10:42.757Z,50.834782
2023-02-21T13:11:43.390Z,50.834808
2023-02-21T13:12:43.732Z,50.834805
2023-02-21T13:13:42.755Z,50.834774
2023-02-21T13:14:42.771Z,50.834789
2023-02-21T13:15:42.755Z,50.834782
2023-02-21T13:16:42.709Z,50.834778
2023-02-21T13:17:42.706Z,50.834789
2023-02-21T13:18:42.683Z,50.834789
2023-02-21T13:19:42.722Z,50.834801
2023-02-21T13:20:42.703Z,50.834793
2023-02-21T13:21:42.654Z,50.834801
2023-02-21T13:22:42.670Z,50.834793
2023-02-21T13:23:42.668Z,50.834808
2023-02-21T13:24:42.642Z,50.834793
2023-02-21T13:25:42.623Z,50.834785
2023-02-21T13:26:43.683Z,50.834805
2023-02-21T13:27:42.614Z,50.834766
2023-02-21T13:28:42.635Z,50.834793
2023-02-21T13:29:42.628Z,50.834774
2023-02-21T13:30:42.759Z,50.834789
2023-02-21T13:31:42.747Z,50.834812
2023-02-21T13:32:42.577Z,50.834797
2023-02-21T13:33:42.626Z,50.834782
2023-02-21T13:34:45.242Z,50.834808
2023-02-21T13:35:43.573Z,50.834793
2023-02-21T13:36:42.588Z,50.834816
2023-02-21T13:37:42.621Z,50.834805
2023-02-21T13:38:42.586Z,50.834785
2023-02-21T13:39:42.523Z,50.834808
2023-02-21T13:40:42.518Z,50.834812
2023-02-21T13:41:42.624Z,50.834789
2023-02-21T13:42:43.157Z,50.834812
2023-02-21T13:43:43.139Z,50.834820
2023-02-21T13:44:42.585Z,50.834835
2023-02-21T13:45:42.484Z,50.834820
2023-02-21T13:46:42.551Z,50.834835
2023-02-21T13:47:42.556Z,50.834816
2023-02-21T13:48:42.437Z,50.834824
2023-02-21T13:49:42.467Z,50.834854
2023-02-21T13:50:42.563Z,50.834835
2023-02-21T13:51:42.414Z,50.834839
2023-02-21T13:52:43.420Z,50.834816
2023-02-21T13:53:42.399Z,50.834816
2023-02-21T13:54:42.421Z,50.834858
2023-02-21T13:55:42.398Z,50.834827
2023-02-21T13:56:42.417Z,50.834850
2023-02-21T13:57:42.465Z,50.834850
2023-02-21T13:58:42.364Z,50.834835
2023-02-21T13:59:42.562Z,50.834820
2023-02-21T14:00:42.405Z,50.834831
2023-02-21T14:01:42.394Z,50.834812
2023-02-21T14:02:42.410Z,50.834816
2023-02-21T14:03:42.333Z,50.834827
2023-02-21T14:04:42.337Z,50.834816
2023-02-21T14:05:42.313Z,50.834808
2023-02-21T14:06:42.296Z,50.834831
2023-02-21T14:07:42.288Z,50.834839
2023-02-21T14:08:42.327Z,50.834831
2023-02-21T14:09:42.492Z,50.834846
2023-02-21T14:10:42.264Z,50.834820
2023-02-21T14:11:42.280Z,50.834820
2023-02-21T14:12:42.254Z,50.834827
2023-02-21T14:13:42.282Z,50.834820
2023-02-21T14:14:42.269Z,50.834820
2023-02-21T14:15:42.216Z,50.834824
2023-02-21T14:16:42.434Z,50.834827
2023-02-21T14:17:42.204Z,50.834816
2023-02-21T14:18:42.204Z,50.834812
2023-02-21T14:19:42.280Z,50.834835
2023-02-21T14:20:42.302Z,50.834808
2023-02-21T14:21:42.197Z,50.834805
2023-02-21T14:22:42.162Z,50.834831
2023-02-21T14:23:42.237Z,50.834816
2023-02-21T14:24:42.173Z,50.834831
2023-02-21T14:25:42.321Z,50.834824
2023-02-21T14:26:42.140Z,50.834808
2023-02-21T14:27:42.135Z,50.834812
2023-02-21T14:28:43.059Z,50.834805
2023-02-21T14:29:42.210Z,50.834808
2023-02-21T14:30:42.171Z,50.834797
2023-02-21T14:31:42.135Z,50.834805
2023-02-21T14:32:42.143Z,50.834793
2023-02-21T14:33:42.262Z,50.834797
2023-02-21T14:34:42.085Z,50.834789
2023-02-21T14:35:42.096Z,50.834808
2023-02-21T14:36:42.082Z,50.834820
2023-02-21T14:37:42.036Z,50.834812
2023-02-21T14:38:42.117Z,50.834785
2023-02-21T14:39:42.055Z,50.834785
2023-02-21T14:40:42.064Z,50.834805
2023-02-21T14:41:42.029Z,50.834805
2023-02-21T14:42:42.019Z,50.834793
2023-02-21T14:43:41.999Z,50.834801
2023-02-21T14:44:41.992Z,50.834805
2023-02-21T14:45:42.047Z,50.834824
2023-02-21T14:46:41.973Z,50.834812
2023-02-21T14:47:41.991Z,50.834827
2023-02-21T14:48:41.997Z,50.834816
2023-02-21T14:49:41.961Z,50.834812
2023-02-21T14:50:41.963Z,50.834824
2023-02-21T14:51:41.946Z,50.834805
2023-02-21T14:52:41.936Z,50.834797
2023-02-21T14:53:41.959Z,50.834805
2023-02-21T14:54:41.921Z,50.834820
2023-02-21T14:55:41.921Z,50.834827
2023-02-21T14:56:42.402Z,50.834820
2023-02-21T14:57:41.923Z,50.834808
2023-02-21T14:58:41.887Z,50.834808
2023-02-21T14:59:41.927Z,50.834808
2023-02-21T15:00:41.933Z,50.834824
2023-02-21T15:01:41.885Z,50.834805
2023-02-21T15:02:41.879Z,50.834801
2023-02-21T15:03:41.867Z,50.834812
2023-02-21T15:04:41.861Z,50.834812
2023-02-21T15:05:41.835Z,50.834812
2023-02-21T15:06:41.827Z,50.834812
2023-02-21T15:07:41.878Z,50.834827
2023-02-21T15:08:41.847Z,50.834812
2023-02-21T15:09:41.807Z,50.834797
2023-02-21T15:10:41.816Z,50.834801
2023-02-21T15:11:41.805Z,50.834797
2023-02-21T15:12:41.857Z,50.834816
2023-02-21T15:13:41.771Z,50.834816
2023-02-21T15:14:41.786Z,50.834812
2023-02-21T15:15:41.800Z,50.834805
2023-02-21T15:16:41.774Z,50.834801
2023-02-21T15:17:41.792Z,50.834808
2023-02-21T15:18:42.769Z,50.834805
2023-02-21T15:19:41.750Z,50.834789
2023-02-21T15:20:41.710Z,50.834820
2023-02-21T15:21:41.715Z,50.834820
2023-02-21T15:22:41.719Z,50.834824
2023-02-21T15:23:41.730Z,50.834816
2023-02-21T15:24:41.704Z,50.834820
2023-02-21T15:25:42.027Z,50.834797
2023-02-21T15:26:41.672Z,50.834808
2023-02-21T15:27:41.644Z,50.834827
2023-02-21T15:28:41.666Z,50.834801
2023-02-21T15:29:41.660Z,50.834812
2023-02-21T15:30:41.905Z,50.834789
2023-02-21T15:31:41.618Z,50.834801
2023-02-21T15:32:41.624Z,50.834793
2023-02-21T15:33:41.644Z,50.834755
2023-02-21T15:34:41.663Z,50.834801
2023-02-21T15:35:41.617Z,50.834820
2023-02-21T15:36:41.848Z,50.834820
2023-02-21T15:37:41.582Z,50.834820
2023-02-21T15:38:41.704Z,50.834808
2023-02-21T15:39:41.882Z,50.834778
2023-02-21T15:40:41.570Z,50.834797
2023-02-21T15:41:41.561Z,50.834805
2023-02-21T15:42:41.585Z,50.834801
2023-02-21T15:43:41.822Z,50.834789
2023-02-21T15:44:41.569Z,50.834789
2023-02-21T15:45:41.571Z,50.834808
2023-02-21T15:46:41.577Z,50.834797
2023-02-21T15:47:41.538Z,50.834808
2023-02-21T15:48:41.516Z,50.834789
2023-02-21T15:49:41.490Z,50.834782
2023-02-21T15:50:41.494Z,50.834785
2023-02-21T15:51:41.483Z,50.834801
2023-02-21T15:52:41.482Z,50.834782
2023-02-21T15:53:41.455Z,50.834785
2023-02-21T15:54:41.475Z,50.834759
2023-02-21T15:55:41.505Z,50.834785
2023-02-21T15:56:41.495Z,50.834763
2023-02-21T15:57:41.445Z,50.834801
2023-02-21T15:58:41.452Z,50.834805
2023-02-21T15:59:42.412Z,50.834827
2023-02-21T16:00:41.463Z,50.834812
2023-02-21T16:01:41.486Z,50.834827
2023-02-21T16:02:41.542Z,50.834801
2023-02-21T16:03:41.441Z,50.834824
2023-02-21T16:04:41.399Z,50.834820
2023-02-21T16:05:41.402Z,50.834831
2023-02-21T16:06:41.388Z,50.834808
2023-02-21T16:07:41.394Z,50.834820
2023-02-21T16:08:41.395Z,50.834820
2023-02-21T16:09:41.328Z,50.834812
2023-02-21T16:10:41.394Z,50.834816
2023-02-21T16:11:41.321Z,50.834801
2023-02-21T16:12:41.388Z,50.834797
2023-02-21T16:13:41.345Z,50.834805
2023-02-21T16:14:41.323Z,50.834808
2023-02-21T16:15:41.336Z,50.834808
2023-02-21T16:16:41.316Z,50.834793
2023-02-21T16:17:41.294Z,50.834782
2023-02-21T16:18:41.292Z,50.834785
2023-02-21T16:19:41.305Z,50.834801
2023-02-21T16:20:41.258Z,50.834808
2023-02-21T16:21:41.310Z,50.834785
2023-02-21T16:23:06.414Z,50.834778
2023-02-21T16:23:43.226Z,50.834793
2023-02-21T16:24:41.260Z,50.834774
2023-02-21T16:25:41.234Z,50.834805
2023-02-21T16:26:41.212Z,50.834805
2023-02-21T16:27:41.238Z,50.834801
2023-02-21T16:28:41.239Z,50.834805
2023-02-21T16:29:41.207Z,50.834805
2023-02-21T16:30:41.259Z,50.834797
2023-02-21T16:31:41.254Z,50.834801
2023-02-21T16:32:41.224Z,50.834789
2023-02-21T16:33:41.242Z,50.834797
2023-02-21T16:34:41.190Z,50.834797
2023-02-21T16:35:41.188Z,50.834801
2023-02-21T16:36:41.143Z,50.834808
2023-02-21T16:37:41.111Z,50.834797
2023-02-21T16:38:41.162Z,50.834805
2023-02-21T16:39:41.157Z,50.834797
2023-02-21T16:40:41.130Z,50.834797
2023-02-21T16:41:41.237Z,50.834801
2023-02-21T16:42:41.108Z,50.834805
2023-02-21T16:43:41.094Z,50.834805
2023-02-21T16:44:41.098Z,50.834793
2023-02-21T16:45:41.091Z,50.834778
2023-02-21T16:46:42.116Z,50.834793
2023-02-21T16:47:41.056Z,50.834797
2023-02-21T16:48:41.080Z,50.834816
2023-02-21T16:49:41.108Z,50.834801
2023-02-21T16:50:41.053Z,50.834785
2023-02-21T16:51:41.050Z,50.834808
2023-02-21T16:52:41.034Z,50.834797
2023-02-21T16:53:41.039Z,50.834797
2023-02-21T16:54:41.131Z,50.834797
2023-02-21T16:55:41.035Z,50.834782
2023-02-21T16:56:41.049Z,50.834793
2023-02-21T16:57:40.987Z,50.834782
2023-02-21T16:58:41.053Z,50.834778
2023-02-21T16:59:40.973Z,50.834763
2023-02-21T17:00:40.972Z,50.834766
2023-02-21T17:01:41.570Z,50.834774
2023-02-21T17:02:41.029Z,50.834778
2023-02-21T17:03:40.961Z,50.834770
2023-02-21T17:04:40.953Z,50.834785
2023-02-21T17:05:40.940Z,50.834785
2023-02-21T17:06:40.994Z,50.834789
2023-02-21T17:07:40.937Z,50.834789
2023-02-21T17:08:40.945Z,50.834797
2023-02-21T17:09:41.463Z,50.834797
2023-02-21T17:10:41.421Z,50.834820
2023-02-21T17:11:40.959Z,50.834801
2023-02-21T17:12:40.852Z,50.834805
2023-02-21T17:13:40.867Z,50.834801
2023-02-21T17:14:40.859Z,50.834785
2023-02-21T17:15:40.928Z,50.834782
2023-02-21T17:16:40.892Z,50.834778
2023-02-21T17:17:41.817Z,50.834785
2023-02-21T17:18:40.842Z,50.834789
2023-02-21T17:19:40.829Z,50.834805
2023-02-21T17:20:40.915Z,50.834808
2023-02-21T17:21:40.873Z,50.834789
2023-02-21T17:22:41.937Z,50.834793
2023-02-21T17:23:40.854Z,50.834812
2023-02-21T17:24:40.784Z,50.834797
2023-02-21T17:25:40.783Z,50.834785
2023-02-21T17:26:40.848Z,50.834812
2023-02-21T17:27:40.837Z,50.834793
2023-02-21T17:28:40.731Z,50.834808
2023-02-21T17:29:41.902Z,50.834774
2023-02-21T17:30:40.814Z,50.834801
2023-02-21T17:31:42.848Z,50.834793
2023-02-21T17:32:40.786Z,50.834782
2023-02-21T17:33:40.714Z,50.834797
2023-02-21T17:34:40.718Z,50.834793
2023-02-21T17:35:40.725Z,50.834801
2023-02-21T17:36:41.426Z,50.834770
2023-02-21T17:37:40.699Z,50.834801
2023-02-21T17:38:40.746Z,50.834797
2023-02-21T17:39:40.657Z,50.834785
2023-02-21T17:40:41.598Z,50.834785
2023-02-21T17:41:40.684Z,50.834774
2023-02-21T17:42:40.638Z,50.834789
2023-02-21T17:43:40.682Z,50.834797
2023-02-21T17:44:40.635Z,50.834789
2023-02-21T17:45:40.661Z,50.834785
2023-02-21T17:46:40.682Z,50.834797
2023-02-21T17:47:40.601Z,50.834785
2023-02-21T17:48:40.582Z,50.834782
2023-02-21T17:49:40.608Z,50.834770
2023-02-21T17:50:40.570Z,50.834782
2023-02-21T17:51:40.604Z,50.834778
2023-02-21T17:52:40.565Z,50.834778
2023-02-21T17:53:40.563Z,50.834778
2023-02-21T17:54:40.588Z,50.834766
2023-02-21T17:55:40.573Z,50.834770
2023-02-21T17:56:40.613Z,50.834774
2023-02-21T17:57:40.610Z,50.834766
2023-02-21T17:58:40.553Z,50.834766
2023-02-21T17:59:40.547Z,50.834774
2023-02-21T18:00:40.588Z,50.834778
2023-02-21T18:01:40.518Z,50.834774
2023-02-21T18:02:40.507Z,50.834770
2023-02-21T18:03:40.472Z,50.834805
2023-02-21T18:04:41.499Z,50.834793
2023-02-21T18:05:40.507Z,50.834782
2023-02-21T18:06:40.487Z,50.834785
2023-02-21T18:07:40.501Z,50.834801
2023-02-21T18:08:40.636Z,50.834774
2023-02-21T18:09:40.442Z,50.834778
2023-02-21T18:10:40.411Z,50.834782
2023-02-21T18:11:40.416Z,50.834808
2023-02-21T18:12:40.556Z,50.834805
2023-02-21T18:13:40.456Z,50.834827
2023-02-21T18:14:40.378Z,50.834793
2023-02-21T18:15:40.386Z,50.834820
2023-02-21T18:16:40.433Z,50.834793
2023-02-21T18:17:40.382Z,50.834808
2023-02-21T18:18:41.355Z,50.834805
2023-02-21T18:19:40.370Z,50.834805
2023-02-21T18:20:40.348Z,50.834816
2023-02-21T18:21:40.390Z,50.834805
2023-02-21T18:22:40.329Z,50.834805
2023-02-21T18:23:40.387Z,50.834801
2023-02-21T18:24:40.354Z,50.834812
2023-02-21T18:25:40.330Z,50.834816
2023-02-21T18:26:40.323Z,50.834808
2023-02-21T18:27:40.282Z,50.834774
2023-02-21T18:28:40.288Z,50.834820
2023-02-21T18:29:40.290Z,50.834793
2023-02-21T18:30:42.129Z,50.834801
2023-02-21T18:31:40.293Z,50.834793
2023-02-21T18:32:41.276Z,50.834797
2023-02-21T18:33:40.295Z,50.834785
2023-02-21T18:34:41.050Z,50.834797
2023-02-21T18:35:40.232Z,50.834812
2023-02-21T18:36:40.235Z,50.834812
2023-02-21T18:37:40.241Z,50.834801
2023-02-21T18:38:40.290Z,50.834808
2023-02-21T18:39:41.126Z,50.834793
2023-02-21T18:40:40.252Z,50.834782
2023-02-21T18:41:41.110Z,50.834805
2023-02-21T18:42:40.164Z,50.834801
2023-02-21T18:43:40.189Z,50.834793
2023-02-21T18:44:40.279Z,50.834782
2023-02-21T18:45:40.229Z,50.834789
2023-02-21T18:46:40.219Z,50.834816
2023-02-21T18:47:40.204Z,50.834820
2023-02-21T18:48:40.173Z,50.834812
2023-02-21T18:49:40.146Z,50.834789
2023-02-21T18:50:40.161Z,50.834789
2023-02-21T18:51:40.171Z,50.834805
2023-02-21T18:52:40.108Z,50.834820
2023-02-21T18:53:40.157Z,50.834831
2023-02-21T18:54:40.158Z,50.834831
2023-02-21T18:55:40.114Z,50.834827
2023-02-21T18:56:40.131Z,50.834824
2023-02-21T18:57:40.071Z,50.834831
2023-02-21T18:58:40.125Z,50.834835
2023-02-21T18:59:40.081Z,50.834854
2023-02-21T19:00:44.825Z,50.834831
2023-02-21T19:01:41.053Z,50.834816
2023-02-21T19:02:40.113Z,50.834827
2023-02-21T19:03:40.077Z,50.834827
2023-02-21T19:04:40.034Z,50.834839
2023-02-21T19:06:13.489Z,50.834824
2023-02-21T19:06:41.070Z,50.834831
2023-02-21T19:07:40.140Z,50.834831
2023-02-21T19:08:39.993Z,50.834846
2023-02-21T19:09:40.024Z,50.834843
2023-02-21T19:10:39.982Z,50.834824
2023-02-21T19:11:39.968Z,50.834835
2023-02-21T19:12:40.051Z,50.834843
2023-02-21T19:13:39.973Z,50.834843
2023-02-21T19:14:39.962Z,50.834839
2023-02-21T19:15:40.625Z,50.834846
2023-02-21T19:16:39.970Z,50.834831
2023-02-21T19:17:40.012Z,50.834866
2023-02-21T19:18:39.943Z,50.834854
2023-02-21T19:19:39.948Z,50.834831
2023-02-21T19:20:39.923Z,50.834831
2023-02-21T19:21:39.963Z,50.834846
2023-02-21T19:22:40.732Z,50.834854
2023-02-21T19:23:39.922Z,50.834843
2023-02-21T19:24:39.856Z,50.834816
2023-02-21T19:25:39.926Z,50.834839
2023-02-21T19:26:39.918Z,50.834831
2023-02-21T19:27:39.956Z,50.834854
2023-02-21T19:28:39.944Z,50.834866
2023-02-21T19:29:39.881Z,50.834846
2023-02-21T19:30:39.938Z,50.834854
2023-02-21T19:31:39.904Z,50.834866
2023-02-21T19:32:39.824Z,50.834885
2023-02-21T19:33:39.886Z,50.834854
2023-02-21T19:34:39.970Z,50.834877
2023-02-21T19:35:39.892Z,50.834866
2023-02-21T19:36:39.905Z,50.834839
2023-02-21T19:37:39.823Z,50.834873
2023-02-21T19:38:39.940Z,50.834858
2023-02-21T19:39:40.170Z,50.834854
2023-02-21T19:40:40.216Z,50.834843
2023-02-21T19:41:40.473Z,50.834846
2023-02-21T19:42:40.759Z,50.834877
2023-02-21T19:43:40.099Z,50.834835
2023-02-21T19:44:39.847Z,50.834854
2023-02-21T19:45:40.951Z,50.834843
2023-02-21T19:46:39.898Z,50.834827
2023-02-21T19:47:39.771Z,50.834846
2023-02-21T19:48:40.673Z,50.834846
2023-02-21T19:49:39.732Z,50.834881
2023-02-21T19:50:39.999Z,50.834885
2023-02-21T19:51:39.683Z,50.834881
2023-02-21T19:52:40.721Z,50.834873
2023-02-21T19:53:39.803Z,50.834873
2023-02-21T19:54:39.750Z,50.834858
2023-02-21T19:55:39.743Z,50.834854
2023-02-21T19:56:40.161Z,50.834854
2023-02-21T19:57:42.045Z,50.834866